Time;durP1;ratioP1;P1;durP2;ratioP2;P2;SDS_P1;SDS_P2;PMS_P1;PMS_P2;Temp;Humidity;BMP_temperature;BMP_pressure;BME280_temperature;BME280_humidity;BME280_pressure;Samples;Min_cycle;Max_cycle;Signal;HPM_P1;HPM_P2
2021/11/16 00:01:20;;;;;;;53.08;29.80;;;;;;;4.93;92.19;102159.66;1669323;85;25561;-85
2021/11/16 00:03:45;;;;;;;58.93;28.67;;;;;;;4.94;92.30;102145.92;1660982;84;25887;-84
2021/11/16 00:06:12;;;;;;;52.88;29.42;;;;;;;4.94;92.32;102140.09;1613646;87;26082;-84
2021/11/16 00:08:39;;;;;;;57.33;29.07;;;;;;;4.96;92.36;102140.02;1634905;86;27192;-83
2021/11/16 00:11:06;;;;;;;55.08;30.80;;;;;;;4.95;92.35;102135.64;1671115;84;26600;-84
2021/11/16 00:13:33;;;;;;;60.73;31.27;;;;;;;4.94;92.40;102134.79;1626474;86;25924;-84
2021/11/16 00:16:01;;;;;;;64.97;30.70;;;;;;;4.93;92.41;102134.44;1637033;86;26517;-83
2021/11/16 00:18:30;;;;;;;51.30;28.75;;;;;;;4.93;92.49;102125.14;1622633;84;25898;-84
2021/11/16 00:20:58;;;;;;;53.75;29.55;;;;;;;4.94;92.51;102124.17;1647732;86;28330;-84
2021/11/16 00:23:33;;;;;;;58.23;30.72;;;;;;;4.95;92.59;102119.71;1626891;86;25881;-84
2021/11/16 00:25:56;;;;;;;53.02;27.50;;;;;;;4.94;92.65;102113.55;1644522;86;25988;-84
2021/11/16 00:28:24;;;;;;;49.15;28.45;;;;;;;4.94;92.63;102122.02;1611278;86;26521;-83
2021/11/16 00:30:53;;;;;;;56.45;29.72;;;;;;;4.95;92.78;102116.59;1660123;85;25899;-84
2021/11/16 00:33:22;;;;;;;62.33;31.00;;;;;;;4.96;92.78;102112.13;1621335;86;27607;-84
2021/11/16 00:35:50;;;;;;;48.95;28.12;;;;;;;4.96;92.82;102114.28;1628272;86;26488;-84
2021/11/16 00:38:19;;;;;;;55.15;29.70;;;;;;;4.97;92.86;102115.14;1632559;86;25831;-84
2021/11/16 00:40:47;;;;;;;58.48;29.67;;;;;;;4.98;92.79;102112.39;1661456;86;25885;-84
2021/11/16 00:43:15;;;;;;;52.83;29.82;;;;;;;5.00;92.86;102113.12;1617124;86;25993;-84
2021/11/16 00:45:44;;;;;;;55.85;31.48;;;;;;;5.02;92.89;102116.51;1648834;86;27497;-84
2021/11/16 00:48:14;;;;;;;56.70;32.53;;;;;;;5.05;92.90;102116.73;1641743;85;25938;-84
2021/11/16 00:50:46;;;;;;;52.98;28.60;;;;;;;5.07;92.82;102116.17;1670599;85;25842;-84
2021/11/16 00:53:13;;;;;;;58.15;29.27;;;;;;;5.05;92.78;102106.11;1666392;84;26492;-84
2021/11/16 00:55:40;;;;;;;55.30;29.65;;;;;;;5.04;92.76;102109.27;1625773;86;25915;-84
2021/11/16 00:58:07;;;;;;;51.60;29.50;;;;;;;5.08;92.82;102119.17;1608717;86;27576;-83
2021/11/16 01:00:34;;;;;;;54.40;29.00;;;;;;;5.10;92.86;102110.61;1659431;86;25839;-84
2021/11/16 01:03:01;;;;;;;54.48;30.12;;;;;;;5.13;92.78;102114.38;1640441;86;26014;-84
2021/11/16 01:05:28;;;;;;;53.90;29.23;;;;;;;5.11;92.77;102111.81;1618884;85;26510;-84
2021/11/16 01:07:55;;;;;;;53.05;28.60;;;;;;;5.13;92.75;102106.41;1607155;85;25395;-84
2021/11/16 01:10:23;;;;;;;56.98;28.60;;;;;;;5.12;92.71;102104.22;1671065;85;28251;-84
2021/11/16 01:12:51;;;;;;;55.00;30.57;;;;;;;5.12;92.71;102101.57;1632098;85;26338;-84
2021/11/16 01:15:19;;;;;;;54.63;29.50;;;;;;;5.12;92.73;102088.77;1627699;86;25916;-84
2021/11/16 01:17:48;;;;;;;59.18;31.55;;;;;;;5.13;92.71;102097.11;1632651;86;25872;-84
2021/11/16 01:20:18;;;;;;;54.38;30.25;;;;;;;5.14;92.78;102096.13;1669368;85;25842;-84
2021/11/16 01:22:48;;;;;;;55.83;29.60;;;;;;;5.13;92.76;102089.97;1612101;86;27705;-83
2021/11/16 01:25:16;;;;;;;55.65;29.60;;;;;;;5.13;92.77;102083.33;1622981;85;25821;-84
2021/11/16 01:27:44;;;;;;;54.45;30.30;;;;;;;5.14;92.78;102078.87;1648283;85;25917;-84
2021/11/16 01:30:17;;;;;;;54.20;30.68;;;;;;;5.15;92.79;102080.10;1661465;85;25951;-85
2021/11/16 01:32:48;;;;;;;62.60;30.90;;;;;;;5.16;92.87;102072.48;1627782;85;25812;-84
2021/11/16 01:35:15;;;;;;;57.97;31.70;;;;;;;5.17;92.80;102067.55;1648702;85;27582;-84
2021/11/16 01:37:42;;;;;;;52.00;28.10;;;;;;;5.17;92.76;102062.71;1636664;86;25895;-84
2021/11/16 01:40:15;;;;;;;56.05;30.85;;;;;;;5.18;92.82;102063.06;1663632;85;25845;-84
2021/11/16 01:42:47;;;;;;;54.80;30.77;;;;;;;5.18;92.78;102063.06;1648731;86;25820;-84
2021/11/16 01:45:16;;;;;;;56.35;30.95;;;;;;;5.21;92.88;102061.52;1646371;86;25949;-84
2021/11/16 01:47:46;;;;;;;56.18;31.17;;;;;;;5.21;92.80;102050.41;1626489;85;27393;-83
2021/11/16 01:50:14;;;;;;;53.17;28.70;;;;;;;5.21;92.79;102050.89;1659630;84;25910;-85
2021/11/16 01:52:42;;;;;;;57.78;31.70;;;;;;;5.21;92.81;102037.13;1630706;85;25986;-84
2021/11/16 01:55:12;;;;;;;55.20;31.23;;;;;;;5.20;92.75;102042.53;1644580;85;26694;-84
2021/11/16 01:57:40;;;;;;;57.53;33.15;;;;;;;5.21;92.83;102037.61;1667109;85;25921;-84
2021/11/16 02:00:12;;;;;;;53.60;29.90;;;;;;;5.22;92.82;102035.30;1654909;86;27503;-84
2021/11/16 02:02:39;;;;;;;54.58;30.65;;;;;;;5.22;92.86;102032.16;1612214;87;25994;-83
2021/11/16 02:05:08;;;;;;;56.42;31.00;;;;;;;5.21;92.70;102037.13;1634511;86;25408;-83
2021/11/16 02:07:35;;;;;;;59.25;30.35;;;;;;;5.21;92.75;102033.62;1603431;86;26612;-84
2021/11/16 02:10:04;;;;;;;58.35;31.95;;;;;;;5.23;92.81;102037.00;1651091;85;25794;-84
2021/11/16 02:12:31;;;;;;;52.35;28.62;;;;;;;5.25;92.86;102027.11;1611920;85;27578;-85
2021/11/16 02:14:58;;;;;;;54.27;30.02;;;;;;;5.26;92.78;102022.99;1640211;87;25842;-84
2021/11/16 02:17:25;;;;;;;54.05;29.12;;;;;;;5.25;92.69;102020.47;1638915;86;25362;-84
2021/11/16 02:19:53;;;;;;;47.93;28.30;;;;;;;5.25;92.70;102014.67;1650884;85;25782;-85
2021/11/16 02:22:20;;;;;;;52.33;29.15;;;;;;;5.23;92.60;102011.77;1644686;86;25989;-84
2021/11/16 02:24:47;;;;;;;54.73;30.30;;;;;;;5.22;92.67;102016.23;1644858;85;27624;-84
2021/11/16 02:27:14;;;;;;;53.83;28.60;;;;;;;5.25;92.76;102013.82;1641113;85;25814;-84
2021/11/16 02:29:42;;;;;;;54.35;31.68;;;;;;;5.26;92.63;102011.04;1661897;86;26083;-84
2021/11/16 02:32:09;;;;;;;53.83;29.98;;;;;;;5.26;92.68;102017.68;1607052;85;25833;-84
2021/11/16 02:34:36;;;;;;;58.50;30.70;;;;;;;5.29;92.68;102007.30;1648888;85;25887;-84
2021/11/16 02:37:04;;;;;;;55.40;31.15;;;;;;;5.27;92.55;102015.88;1615910;85;27309;-84
2021/11/16 02:39:31;;;;;;;57.83;30.48;;;;;;;5.25;92.52;102009.36;1669499;85;25990;-84
2021/11/16 02:41:59;;;;;;;52.05;29.18;;;;;;;5.25;92.66;102004.05;1627359;87;25949;-84
2021/11/16 02:44:26;;;;;;;53.73;28.60;;;;;;;5.25;92.62;102008.03;1628675;86;25885;-84
2021/11/16 02:46:53;;;;;;;53.60;30.27;;;;;;;5.25;92.60;102003.20;1613688;86;25854;-84
2021/11/16 02:49:20;;;;;;;59.63;30.55;;;;;;;5.25;92.66;101997.41;1656711;85;27624;-83
2021/11/16 02:51:47;;;;;;;51.15;28.80;;;;;;;5.25;92.64;101999.21;1624989;86;26335;-84
2021/11/16 02:54:18;;;;;;;55.75;30.37;;;;;;;5.26;92.52;102000.92;1601859;86;26006;-84
2021/11/16 02:56:47;;;;;;;55.43;29.67;;;;;;;5.26;92.60;101996.43;1647318;84;26375;-84
2021/11/16 02:59:15;;;;;;;56.18;30.48;;;;;;;5.25;92.55;101989.91;1666037;85;25906;-84
2021/11/16 03:01:42;;;;;;;60.55;32.98;;;;;;;5.27;92.64;101990.64;1632034;86;27568;-85
2021/11/16 03:04:09;;;;;;;51.35;29.00;;;;;;;5.27;92.63;101985.33;1634910;86;25968;-84
2021/11/16 03:06:37;;;;;;;51.70;29.55;;;;;;;5.27;92.64;101978.21;1597045;86;26023;-84
2021/11/16 03:09:04;;;;;;;53.80;30.52;;;;;;;5.28;92.67;101979.06;1656556;85;26060;-83
2021/11/16 03:11:31;;;;;;;54.27;29.75;;;;;;;5.28;92.57;101983.05;1607439;86;26002;-84
2021/11/16 03:13:58;;;;;;;53.68;29.18;;;;;;;5.30;92.61;101993.07;1658831;85;27496;-84
2021/11/16 03:16:25;;;;;;;60.23;30.95;;;;;;;5.28;92.51;101977.23;1642781;85;26590;-84
2021/11/16 03:18:54;;;;;;;61.05;31.77;;;;;;;5.27;92.44;101982.20;1633041;86;25907;-84
2021/11/16 03:21:25;;;;;;;63.58;33.40;;;;;;;5.26;92.55;101979.66;1631203;86;26087;-84
2021/11/16 03:23:56;;;;;;;57.88;30.30;;;;;;;5.28;92.55;101978.56;1628285;86;25884;-84
2021/11/16 03:26:25;;;;;;;57.43;31.02;;;;;;;5.27;92.49;101976.03;1644996;85;32586;-84
2021/11/16 03:28:53;;;;;;;51.13;29.43;;;;;;;5.21;92.54;101969.39;1666175;85;25863;-84
2021/11/16 03:33:57;;;;;;;52.33;29.60;;;;;;;5.28;92.72;101978.56;1639348;85;25889;-84
2021/11/16 03:36:26;;;;;;;60.38;33.50;;;;;;;5.27;92.59;101976.88;1648761;85;25941;-84
2021/11/16 03:38:56;;;;;;;59.83;32.80;;;;;;;5.29;92.60;101980.27;1664015;84;27595;-84
2021/11/16 03:41:24;;;;;;;57.83;31.82;;;;;;;5.30;92.68;101979.28;1677019;84;26032;-85
2021/11/16 03:43:54;;;;;;;54.53;29.60;;;;;;;5.33;92.67;101970.23;1639858;84;25924;-84
2021/11/16 03:46:22;;;;;;;60.73;31.37;;;;;;;5.33;92.54;101974.22;1634498;85;26583;-84
2021/11/16 03:48:49;;;;;;;55.23;32.30;;;;;;;5.33;92.52;101972.89;1663507;84;26521;-84
2021/11/16 03:51:16;;;;;;;52.62;28.90;;;;;;;5.31;92.52;101966.84;1676375;84;28186;-84
2021/11/16 03:53:44;;;;;;;59.67;31.37;;;;;;;5.32;92.58;101969.37;1635445;86;25842;-84
2021/11/16 03:56:12;;;;;;;52.05;31.37;;;;;;;5.32;92.54;101969.37;1608971;85;26034;-83
2021/11/16 03:58:42;;;;;;;56.35;31.37;;;;;;;5.31;92.49;101969.03;1638462;85;25946;-84
2021/11/16 04:01:09;;;;;;;57.83;30.77;;;;;;;5.32;92.53;101973.36;1677689;85;25764;-84
2021/11/16 04:03:39;;;;;;;59.77;32.10;;;;;;;5.34;92.57;101974.12;1625294;85;27423;-84
2021/11/16 04:06:06;;;;;;;58.20;31.57;;;;;;;5.33;92.52;101970.23;1688433;84;26093;-84
2021/11/16 04:08:34;;;;;;;59.25;31.87;;;;;;;5.33;92.56;101974.22;1651089;85;25864;-84
2021/11/16 04:11:03;;;;;;;59.58;32.08;;;;;;;5.34;92.56;101969.28;1656318;85;26599;-84
2021/11/16 04:13:30;;;;;;;69.87;37.03;;;;;;;5.34;92.58;101961.31;1634878;86;25960;-84
2021/11/16 04:15:58;;;;;;;73.20;36.03;;;;;;;5.36;92.57;101963.36;1616982;86;27587;-84
2021/11/16 04:18:25;;;;;;;84.62;39.50;;;;;;;5.36;92.56;101962.03;1626087;86;25415;-85
2021/11/16 04:20:55;;;;;;;77.37;39.48;;;;;;;5.38;92.71;101958.77;1654506;85;25872;-85
2021/11/16 04:23:24;;;;;;;85.35;44.10;;;;;;;5.38;92.55;101952.98;1666930;84;26155;-84
2021/11/16 04:25:53;;;;;;;73.50;39.67;;;;;;;5.37;92.57;101955.27;1620095;85;25986;-84
2021/11/16 04:28:20;;;;;;;71.72;37.25;;;;;;;5.39;92.60;101956.46;1631058;86;27571;-84
2021/11/16 04:30:50;;;;;;;75.28;38.75;;;;;;;5.39;92.53;101956.46;1656111;86;43388;-84
2021/11/16 04:33:19;;;;;;;70.50;38.53;;;;;;;5.38;92.57;101952.98;1649340;85;25823;-84
2021/11/16 04:35:47;;;;;;;71.87;38.33;;;;;;;5.39;92.66;101962.63;1648985;85;25879;-84
2021/11/16 04:38:17;;;;;;;73.02;39.85;;;;;;;5.42;92.71;101960.22;1627963;86;25363;-85
2021/11/16 04:40:51;;;;;;;70.67;35.33;;;;;;;5.42;92.71;101961.08;1681543;85;28137;-84
2021/11/16 04:43:21;;;;;;;73.62;39.73;;;;;;;5.41;92.60;101967.34;1629942;85;25854;-85
2021/11/16 04:45:51;;;;;;;79.17;46.83;;;;;;;5.41;92.63;101965.16;1599918;85;25868;-83
2021/11/16 04:48:35;;;;;;;75.43;42.03;;;;;;;5.40;92.75;101960.35;1655845;85;26590;-83
2021/11/16 05:04:22;;;;;;;87.92;44.90;;;;;;;5.43;92.99;101969.90;1647473;85;26157;-83
2021/11/16 05:06:52;;;;;;;81.85;42.85;;;;;;;5.44;93.03;101973.75;1629163;85;27500;-83
2021/11/16 05:09:19;;;;;;;73.15;40.55;;;;;;;5.47;93.02;101976.15;1644786;85;25941;-84
2021/11/16 05:11:46;;;;;;;77.55;38.55;;;;;;;5.49;93.03;101976.05;1650611;85;26282;-83
2021/11/16 05:14:13;;;;;;;69.62;37.95;;;;;;;5.52;93.06;101965.67;1656386;85;25825;-84
2021/11/16 05:16:40;;;;;;;71.97;39.25;;;;;;;5.54;93.05;101971.71;1618686;85;26164;-84
2021/11/16 05:19:07;;;;;;;72.42;36.55;;;;;;;5.56;92.99;101967.12;1644652;85;27482;-83
2021/11/16 05:21:34;;;;;;;75.10;38.75;;;;;;;5.56;93.06;101974.58;1675393;85;25794;-83
2021/11/16 05:24:01;;;;;;;74.75;39.35;;;;;;;5.58;93.03;101974.48;1668208;84;25326;-83
2021/11/16 05:26:30;;;;;;;82.35;41.40;;;;;;;5.58;93.06;101978.47;1631546;86;26608;-84
2021/11/16 05:28:59;;;;;;;71.28;38.10;;;;;;;5.58;92.99;101974.48;1636020;86;25872;-84
2021/11/16 05:31:26;;;;;;;72.78;36.30;;;;;;;5.58;93.11;101972.65;1655960;85;28407;-84
2021/11/16 05:33:54;;;;;;;78.78;37.78;;;;;;;5.58;93.04;101973.16;1636409;86;25902;-84
2021/11/16 05:36:23;;;;;;;76.33;38.05;;;;;;;5.59;93.12;101972.17;1630020;85;25916;-84
2021/11/16 05:38:51;;;;;;;84.45;44.15;;;;;;;5.60;93.20;101977.86;1606870;87;25878;-84
2021/11/16 05:41:18;;;;;;;93.27;48.08;;;;;;;5.62;93.19;101980.77;1653695;85;26718;-83
2021/11/16 05:43:47;;;;;;;98.58;54.60;;;;;;;5.62;93.18;101982.58;1658158;84;27395;-84
2021/11/16 05:46:20;;;;;;;82.85;44.93;;;;;;;5.64;93.23;101985.95;1607964;84;26049;-84
2021/11/16 05:48:45;;;;;;;90.80;45.35;;;;;;;5.65;93.29;101988.48;1657155;84;25895;-83
2021/11/16 05:51:13;;;;;;;81.10;42.38;;;;;;;5.69;93.28;101994.42;1661375;84;25898;-84
2021/11/16 05:53:43;;;;;;;73.35;39.05;;;;;;;5.70;93.32;101984.13;1645821;86;26375;-84
2021/11/16 05:56:09;;;;;;;69.75;36.68;;;;;;;5.68;93.26;101984.74;1634013;84;28459;-83
2021/11/16 05:58:41;;;;;;;73.20;38.75;;;;;;;5.69;93.31;101992.59;1608607;87;26637;-83
2021/11/16 06:01:09;;;;;;;79.75;40.00;;;;;;;5.69;93.38;101987.27;1660343;85;25461;-84
2021/11/16 06:03:36;;;;;;;82.17;40.80;;;;;;;5.73;93.42;101987.89;1656447;84;25903;-84
2021/11/16 06:06:03;;;;;;;79.85;40.33;;;;;;;5.72;93.30;101981.72;1630488;85;25800;-84
2021/11/16 06:08:30;;;;;;;77.17;39.53;;;;;;;5.72;93.46;101972.42;1616763;86;28712;-84
2021/11/16 06:10:57;;;;;;;82.12;39.30;;;;;;;5.72;93.44;101984.86;1671472;85;25950;-84
2021/11/16 06:13:24;;;;;;;82.55;43.38;;;;;;;5.73;93.54;101971.94;1624308;86;25933;-84
2021/11/16 06:15:51;;;;;;;86.70;41.25;;;;;;;5.74;93.61;101973.14;1633063;85;26586;-84
2021/11/16 06:18:22;;;;;;;82.17;39.88;;;;;;;5.76;93.63;101981.84;1625689;86;26512;-84
2021/11/16 06:20:52;;;;;;;84.37;41.83;;;;;;;5.75;93.66;101976.14;1666545;85;27476;-83
2021/11/16 06:23:19;;;;;;;83.17;40.03;;;;;;;5.76;93.76;101984.50;1654937;85;25895;-84
2021/11/16 06:25:46;;;;;;;84.47;40.78;;;;;;;5.76;93.72;101976.52;1630951;86;25902;-83
2021/11/16 06:28:14;;;;;;;87.80;41.00;;;;;;;5.77;93.68;101989.34;1622224;86;25885;-84
2021/11/16 06:30:41;;;;;;;84.83;40.60;;;;;;;5.76;93.66;101987.62;1670953;85;25824;-83
2021/11/16 06:33:08;;;;;;;83.78;40.25;;;;;;;5.77;93.76;101996.84;1648559;85;28180;-84
2021/11/16 06:35:35;;;;;;;83.22;41.53;;;;;;;5.78;93.83;101987.02;1629420;85;25993;-83
2021/11/16 06:38:03;;;;;;;82.40;41.00;;;;;;;5.79;93.87;101992.23;1618548;85;25677;-84
2021/11/16 06:40:30;;;;;;;81.22;40.03;;;;;;;5.82;93.86;101996.44;1675825;84;25902;-84
2021/11/16 06:42:57;;;;;;;81.75;39.42;;;;;;;5.82;93.79;101994.63;1674236;84;25856;-84
2021/11/16 06:45:24;;;;;;;84.50;40.17;;;;;;;5.82;93.83;101993.78;1623665;86;27593;-84
2021/11/16 06:47:51;;;;;;;81.57;39.92;;;;;;;5.85;93.90;101982.95;1642032;86;25419;-83
2021/11/16 06:50:18;;;;;;;87.90;41.20;;;;;;;5.88;93.96;101993.35;1639835;86;26144;-84
2021/11/16 06:52:45;;;;;;;76.57;37.98;;;;;;;5.89;93.91;101988.38;1654753;86;25761;-84
2021/11/16 06:55:14;;;;;;;77.90;38.23;;;;;;;5.89;93.88;101989.23;1664470;85;25863;-84
2021/11/16 06:57:43;;;;;;;83.80;37.05;;;;;;;5.90;93.85;101986.09;1634018;86;27604;-84
2021/11/16 07:00:11;;;;;;;77.40;36.80;;;;;;;5.90;93.84;101982.92;1655414;85;25824;-84
2021/11/16 07:02:40;;;;;;;86.05;39.48;;;;;;;5.90;93.86;101978.94;1665327;85;25907;-83
2021/11/16 07:05:12;;;;;;;86.17;38.73;;;;;;;5.91;93.88;101981.12;1654780;86;25892;-83
2021/11/16 07:07:46;;;;;;;81.40;40.50;;;;;;;5.93;93.82;101976.52;1632634;85;25893;-83
2021/11/16 07:10:18;;;;;;;89.20;40.40;;;;;;;5.94;93.84;101978.23;1616635;86;28181;-84
2021/11/16 07:12:45;;;;;;;79.00;38.75;;;;;;;5.95;93.82;101976.77;1654743;86;26052;-83
2021/11/16 07:15:14;;;;;;;86.32;40.05;;;;;;;5.95;93.80;101971.92;1668093;85;25795;-84
2021/11/16 07:17:41;;;;;;;80.70;38.88;;;;;;;5.94;93.80;101972.44;1632212;85;26047;-84
2021/11/16 07:20:10;;;;;;;90.12;40.80;;;;;;;5.96;93.84;101965.66;1641073;86;26190;-84
2021/11/16 07:22:37;;;;;;;84.52;39.78;;;;;;;5.98;93.86;101967.22;1654885;86;28242;-84
2021/11/16 07:25:11;;;;;;;82.57;38.30;;;;;;;5.99;93.78;101964.05;1654710;86;25969;-83
2021/11/16 07:27:48;;;;;;;82.67;40.43;;;;;;;6.00;93.84;101961.30;1639726;86;25907;-83
2021/11/16 07:30:26;;;;;;;87.57;39.88;;;;;;;6.01;93.89;101958.98;1622010;85;25892;-84
2021/11/16 07:33:00;;;;;;;80.72;38.38;;;;;;;6.03;93.95;101950.39;1645351;86;25900;-84
2021/11/16 07:35:34;;;;;;;89.90;41.40;;;;;;;6.05;93.97;101956.42;1632258;86;27765;-84
2021/11/16 07:38:04;;;;;;;84.62;39.53;;;;;;;6.09;93.96;101953.05;1649710;85;26065;-83
2021/11/16 07:40:33;;;;;;;76.05;37.65;;;;;;;6.08;93.94;101933.58;1627635;86;26045;-84
2021/11/16 07:43:08;;;;;;;85.15;38.73;;;;;;;6.10;93.91;101936.95;1658747;85;26583;-83
2021/11/16 07:45:45;;;;;;;83.95;41.00;;;;;;;6.12;93.92;101932.83;1627082;86;26523;-82
2021/11/16 07:48:18;;;;;;;83.40;39.58;;;;;;;6.12;93.88;101932.35;1627087;85;27507;-84
2021/11/16 07:50:55;;;;;;;81.63;40.05;;;;;;;6.13;93.93;101930.55;1601159;86;26690;-83
2021/11/16 07:53:30;;;;;;;85.55;39.92;;;;;;;6.15;93.96;101936.11;1661426;85;25810;-83
2021/11/16 07:56:17;;;;;;;81.50;39.33;;;;;;;6.17;93.95;101935.49;1656272;86;25871;-82
2021/11/16 07:58:50;;;;;;;88.58;39.10;;;;;;;6.19;93.90;101939.34;1603924;85;25998;-83
2021/11/16 08:01:25;;;;;;;87.88;41.48;;;;;;;6.19;93.85;101933.55;1675697;85;27558;-83
2021/11/16 08:03:57;;;;;;;84.22;40.67;;;;;;;6.19;93.75;101930.89;1635297;86;25842;-84
2021/11/16 08:06:25;;;;;;;86.63;40.20;;;;;;;6.20;93.77;101932.56;1676217;85;25362;-84
2021/11/16 08:14:09;;;;;;;82.90;41.25;;;;;;;6.21;93.59;101926.28;1665266;85;28000;-83
2021/11/16 08:16:59;;;;;;;97.62;48.55;;;;;;;6.22;93.67;101920.48;1668488;85;26513;-83
2021/11/16 08:19:32;;;;;;;88.25;42.23;;;;;;;6.23;93.67;101923.02;1651283;84;25949;-83
2021/11/16 08:22:04;;;;;;;88.60;43.87;;;;;;;6.26;93.71;101919.73;1635445;86;26619;-83
2021/11/16 08:24:35;;;;;;;97.88;47.40;;;;;;;6.27;93.68;101913.42;1655815;86;25758;-83
2021/11/16 08:27:06;;;;;;;84.85;42.10;;;;;;;6.28;93.74;101913.80;1656829;85;27575;-83
2021/11/16 08:29:42;;;;;;;89.05;40.92;;;;;;;6.27;93.58;101906.30;1625499;85;25831;-83
2021/11/16 08:32:21;;;;;;;84.22;39.83;;;;;;;6.27;93.46;101902.78;1604483;86;26650;-83
2021/11/16 08:34:53;;;;;;;91.92;43.50;;;;;;;6.29;93.61;101903.53;1668214;85;25899;-83
2021/11/16 08:37:24;;;;;;;87.47;42.27;;;;;;;6.30;93.53;101899.41;1663141;85;25817;-83
2021/11/16 08:39:59;;;;;;;81.90;41.00;;;;;;;6.30;93.53;101897.22;1673699;84;28236;-83
2021/11/16 08:42:34;;;;;;;86.95;42.15;;;;;;;6.32;93.58;101897.45;1610702;86;26022;-83
2021/11/16 08:45:06;;;;;;;86.80;40.75;;;;;;;6.33;93.59;101892.47;1658542;86;25908;-84
2021/11/16 08:47:44;;;;;;;78.15;38.42;;;;;;;6.35;93.54;101894.52;1660788;86;26032;-82
2021/11/16 08:50:23;;;;;;;86.90;41.63;;;;;;;6.36;93.52;101884.73;1627925;86;25971;-83
2021/11/16 08:52:50;;;;;;;89.65;41.60;;;;;;;6.37;93.56;101880.63;1636862;86;27593;-83
2021/11/16 08:55:19;;;;;;;81.67;40.73;;;;;;;6.38;93.44;101878.31;1660072;86;25951;-83
2021/11/16 08:57:51;;;;;;;80.77;39.05;;;;;;;6.38;93.33;101880.12;1663694;85;25959;-83
2021/11/16 09:00:33;;;;;;;83.07;40.28;;;;;;;6.37;93.31;101873.98;1621885;86;26411;-83
2021/11/16 09:03:17;;;;;;;82.42;40.33;;;;;;;6.38;93.32;101877.45;1618590;86;25888;-83
2021/11/16 09:05:47;;;;;;;85.72;41.90;;;;;;;6.38;93.36;101874.31;1667180;85;27670;-83
2021/11/16 09:08:24;;;;;;;102.02;49.85;;;;;;;6.40;93.45;101872.84;1661916;85;25954;-84
2021/11/16 09:10:57;;;;;;;83.47;41.30;;;;;;;6.41;93.42;101871.41;1640525;86;25997;-83
2021/11/16 09:13:28;;;;;;;79.62;38.45;;;;;;;6.42;93.29;101866.43;1637174;84;25874;-83
2021/11/16 09:16:00;;;;;;;89.55;41.10;;;;;;;6.44;93.29;101871.61;1677427;84;26035;-83
2021/11/16 09:18:32;;;;;;;80.62;40.00;;;;;;;6.43;93.02;101869.94;1665002;84;27508;-82
2021/11/16 09:21:03;;;;;;;77.00;39.15;;;;;;;6.43;92.95;101872.61;1643667;84;25963;-83
2021/11/16 09:23:35;;;;;;;79.90;39.38;;;;;;;6.43;93.05;101878.78;1620799;86;26015;-83
2021/11/16 09:26:36;;;;;;;86.87;42.67;;;;;;;6.44;93.15;101877.79;1674829;84;26291;-83
2021/11/16 09:29:14;;;;;;;82.22;39.08;;;;;;;6.45;93.15;101877.31;1659261;86;25995;-83
2021/11/16 09:32:01;;;;;;;78.15;38.85;;;;;;;6.48;93.25;101874.41;1645936;84;27524;-83
2021/11/16 09:34:33;;;;;;;79.77;39.75;;;;;;;6.50;93.19;101873.78;1640653;85;25972;-83
2021/11/16 09:37:05;;;;;;;84.85;41.00;;;;;;;6.50;93.06;101874.61;1663606;85;25800;-82
2021/11/16 09:39:47;;;;;;;77.97;38.75;;;;;;;6.50;92.96;101871.94;1631335;85;25986;-83
2021/11/16 09:42:19;;;;;;;83.47;42.05;;;;;;;6.50;92.87;101867.95;1677100;85;26026;-83
2021/11/16 09:44:52;;;;;;;72.53;37.80;;;;;;;6.53;93.02;101869.52;1611391;85;27464;-83
2021/11/16 09:47:30;;;;;;;76.95;37.15;;;;;;;6.55;92.95;101864.42;1673558;85;26507;-83
2021/11/16 09:50:01;;;;;;;80.62;39.55;;;;;;;6.56;92.84;101865.27;1660719;85;26500;-83
2021/11/16 09:52:51;;;;;;;74.03;38.15;;;;;;;6.59;92.87;101861.00;1615085;86;25852;-84
2021/11/16 09:55:25;;;;;;;74.07;36.95;;;;;;;6.61;92.80;101859.05;1606275;85;25832;-82
2021/11/16 09:58:06;;;;;;;76.90;38.38;;;;;;;6.62;92.67;101858.94;1660049;85;27376;-83
2021/11/16 10:00:40;;;;;;;80.42;38.73;;;;;;;6.65;92.58;101863.17;1654928;86;25895;-83
2021/11/16 10:03:18;;;;;;;72.17;36.15;;;;;;;6.63;92.43;101859.80;1612866;86;25932;-83
2021/11/16 10:05:51;;;;;;;78.12;38.58;;;;;;;6.65;92.44;101870.64;1627866;85;25917;-83
2021/11/16 10:08:19;;;;;;;80.07;40.17;;;;;;;6.65;92.43;101862.66;1671013;85;26552;-83
2021/11/16 10:10:51;;;;;;;72.10;37.85;;;;;;;6.66;92.43;101857.70;1673163;84;27558;-83
2021/11/16 10:13:26;;;;;;;78.15;37.50;;;;;;;6.68;92.35;101857.56;1646030;84;25861;-83
2021/11/16 10:15:59;;;;;;;81.92;39.38;;;;;;;6.69;92.24;101857.94;1641176;86;25879;-84
2021/11/16 10:18:28;;;;;;;76.45;40.00;;;;;;;6.70;92.33;101858.27;1667911;85;25833;-83
2021/11/16 10:20:56;;;;;;;77.15;38.38;;;;;;;6.72;92.24;101860.31;1633123;86;25372;-82
2021/11/16 10:23:34;;;;;;;79.15;38.67;;;;;;;6.73;92.22;101854.03;1648315;85;28274;-83
2021/11/16 10:26:04;;;;;;;73.95;37.42;;;;;;;6.76;92.20;101852.42;1635059;86;26617;-83
2021/11/16 10:28:34;;;;;;;74.92;37.00;;;;;;;6.79;92.03;101848.17;1643776;85;25872;-84
2021/11/16 10:31:02;;;;;;;80.05;38.58;;;;;;;6.79;91.92;101839.70;1662932;85;25849;-83
2021/11/16 10:33:40;;;;;;;71.40;35.80;;;;;;;6.83;91.92;101837.13;1654462;85;25365;-83
2021/11/16 10:36:14;;;;;;;77.35;36.55;;;;;;;6.86;91.92;101830.70;1632350;85;27676;-83
2021/11/16 10:38:52;;;;;;;73.02;36.05;;;;;;;6.88;91.78;101828.74;1627044;86;25900;-83
2021/11/16 10:41:24;;;;;;;70.15;37.33;;;;;;;6.92;91.97;101827.50;1666036;85;26195;-82
2021/11/16 10:44:06;;;;;;;71.53;37.28;;;;;;;6.95;92.06;101825.88;1649907;85;25850;-84
2021/11/16 10:46:41;;;;;;;77.82;39.85;;;;;;;6.97;91.83;101824.78;1639613;84;25940;-84
2021/11/16 10:49:14;;;;;;;80.05;40.10;;;;;;;7.00;91.82;101817.02;1637320;86;28192;-83
2021/11/16 10:51:45;;;;;;;74.90;35.95;;;;;;;7.01;91.79;101806.72;1668219;84;26019;-83
2021/11/16 10:54:13;;;;;;;71.12;37.20;;;;;;;7.03;91.80;101816.75;1653824;84;25346;-83
2021/11/16 10:56:42;;;;;;;76.55;38.92;;;;;;;7.06;91.70;101820.98;1618939;85;25841;-83
2021/11/16 10:59:15;;;;;;;76.10;37.93;;;;;;;7.07;91.71;101812.84;1671669;84;25993;-83
2021/11/16 11:01:54;;;;;;;108.50;52.17;;;;;;;7.09;91.58;101807.37;1658342;84;28382;-83
2021/11/16 11:04:29;;;;;;;87.02;44.93;;;;;;;7.09;91.59;101806.89;1664864;84;25650;-84
2021/11/16 11:07:11;;;;;;;78.85;41.37;;;;;;;7.11;91.66;101808.08;1622858;84;26561;-84
2021/11/16 11:09:38;;;;;;;76.42;40.35;;;;;;;7.13;91.50;101801.64;1664109;85;25846;-83
2021/11/16 11:12:24;;;;;;;76.60;40.03;;;;;;;7.15;91.63;101797.50;1661915;86;25757;-84
2021/11/16 11:14:54;;;;;;;79.67;39.73;;;;;;;7.20;91.77;101801.46;1646231;84;27239;-83
2021/11/16 11:17:34;;;;;;;72.05;37.23;;;;;;;7.20;91.51;101789.47;1619397;84;26052;-84
2021/11/16 11:20:11;;;;;;;;;;;;;;;7.22;91.61;101785.33;1635179;84;25940;-84
2021/11/16 11:22:41;;;;;;;77.15;39.33;;;;;;;7.24;91.62;101783.36;1664714;85;26489;-83
2021/11/16 11:25:12;;;;;;;75.87;37.78;;;;;;;7.25;91.67;101789.06;1634660;85;25966;-83
2021/11/16 11:27:43;;;;;;;78.57;39.30;;;;;;;7.25;91.52;101776.56;1640199;86;27106;-83
2021/11/16 11:30:18;;;;;;;77.82;39.38;;;;;;;7.27;91.50;101783.11;1647642;84;25900;-83
2021/11/16 11:32:49;;;;;;;74.97;39.30;;;;;;;7.28;91.60;101778.96;1659907;86;26065;-83
2021/11/16 11:35:20;;;;;;;76.70;38.10;;;;;;;7.30;91.52;101780.15;1580699;86;25652;-84
2021/11/16 11:37:52;;;;;;;76.85;40.73;;;;;;;7.32;91.59;101766.20;1685144;84;26045;-83
2021/11/16 11:40:33;;;;;;;86.12;40.48;;;;;;;7.34;91.55;101766.89;1656868;86;27530;-83
2021/11/16 11:43:08;;;;;;;81.67;40.40;;;;;;;7.35;91.54;101761.94;1665701;86;25778;-84
2021/11/16 11:45:40;;;;;;;75.30;39.38;;;;;;;7.37;91.56;101764.82;1624060;86;25953;-83
2021/11/16 11:48:19;;;;;;;76.00;37.93;;;;;;;7.39;91.48;101758.02;1671649;85;25779;-84
2021/11/16 11:50:57;;;;;;;74.87;36.77;;;;;;;7.40;91.24;101760.53;1668267;85;26410;-83
2021/11/16 11:53:31;;;;;;;72.55;38.30;;;;;;;7.41;91.11;101755.56;1657469;85;28350;-83